• Join FlightAware (Why Join?)
  • Login
  • US Flag 
04:42PM EDT


 

Airport Tracker/Info


-or-


 

Live Flight TrackerFlight Track Log ✈ DLH585 ✈ 26-Apr-2013 ✈ HECA / CAI - EDDF / FRA

Flight Track Log - Related Links

Times and Time Zones

All times are in EDT time to prevent confusion due to time zone crossing. See the DLH585 flight status page for this flight to view local times or setup timezone preferences in your user account.

Time Position Orientation Groundspeed Altitude Reporting Facility
EDT Latitude Longitude Course Direction KTS MPH feet Rate Location/Type
10:26PM 30.4865 31.1166 326° Northwest  Level Estimated
10:27PM 30.5776 31.0441 326° Northwest  Level Estimated
10:28PM 30.6686 30.9713 326° Northwest  Level Estimated
10:29PM 30.7595 30.8985 325° Northwest  Level Estimated
10:30PM 30.8504 30.8255 325° Northwest  Level Estimated
10:31PM 30.9413 30.7524 325° Northwest  Level Estimated
10:32PM 31.0322 30.6791 325° Northwest  Level Estimated
10:33PM 31.1230 30.6057 325° Northwest  Level Estimated
10:34PM 31.2137 30.5322 325° Northwest  Level Estimated
10:35PM 31.3044 30.4585 325° Northwest  Level Estimated
10:36PM 31.3951 30.3847 325° Northwest  Level Estimated
10:37PM 31.4857 30.3107 325° Northwest  Level Estimated
10:38PM 31.5763 30.2366 325° Northwest  Level Estimated
10:39PM 31.6669 30.1624 325° Northwest  Level Estimated
10:40PM 31.7574 30.0880 325° Northwest  Level Estimated
10:41PM 31.8478 30.0134 325° Northwest  Level Estimated
10:42PM 31.9382 29.9387 325° Northwest  Level Estimated
10:43PM 32.0286 29.8639 325° Northwest  Level Estimated
10:44PM 32.1189 29.7889 325° Northwest  Level Estimated
10:45PM 32.2092 29.7138 325° Northwest  Level Estimated
10:46PM 32.2995 29.6385 325° Northwest  Level Estimated
10:47PM 32.3897 29.5631 325° Northwest  Level Estimated
10:48PM 32.4798 29.4875 325° Northwest  Level Estimated
10:49PM 32.5699 29.4118 325° Northwest  Level Estimated
10:50PM 32.6600 29.3359 325° Northwest  Level Estimated
10:51PM 32.7500 29.2598 325° Northwest  Level Estimated
10:52PM 32.8400 29.1836 325° Northwest  Level Estimated
10:53PM 32.9299 29.1073 325° Northwest  Level Estimated
10:54PM 33.0197 29.0308 324° Northwest  Level Estimated
10:55PM 33.1096 28.9541 324° Northwest  Level Estimated
10:56PM 33.1993 28.8773 324° Northwest  Level Estimated
10:57PM 33.2891 28.8003 324° Northwest  Level Estimated
10:58PM 33.3788 28.7232 324° Northwest  Level Estimated
10:59PM 33.4684 28.6459 324° Northwest  Level Estimated
11:00PM 33.5580 28.5684 324° Northwest  Level Estimated
11:01PM 33.6475 28.4908 324° Northwest  Level Estimated
11:02PM 33.7370 28.4130 324° Northwest  Level Estimated
11:03PM 33.8265 28.3351 324° Northwest  Level Estimated
11:04PM 33.9159 28.2570 324° Northwest  Level Estimated
11:05PM 34.0052 28.1787 324° Northwest  Level Estimated
11:06PM 34.0945 28.1003 324° Northwest  Level Estimated
11:07PM 34.1837 28.0217 324° Northwest  Level Estimated
11:08PM 34.2729 27.9429 324° Northwest  Level Estimated
11:09PM 34.3620 27.8640 324° Northwest  Level Estimated
11:10PM 34.4511 27.7849 324° Northwest  Level Estimated
11:11PM 34.5402 27.7057 324° Northwest  Level Estimated
11:12PM 34.6292 27.6262 324° Northwest  Level Estimated
11:13PM 34.7181 27.5466 324° Northwest  Level Estimated
11:14PM 34.8070 27.4668 324° Northwest  Level Estimated
11:15PM 34.8958 27.3869 324° Northwest  Level Estimated
11:16PM 34.9846 27.3067 324° Northwest  Level Estimated
11:17PM 35.0733 27.2264 323° Northwest  Level Estimated
11:18PM 35.1620 27.1460 323° Northwest  Level Estimated
11:19PM 35.2506 27.0653 323° Northwest  Level Estimated
11:20PM 35.3392 26.9845 323° Northwest  Level Estimated
11:21PM 35.4277 26.9035 323° Northwest  Level Estimated
11:22PM 35.5162 26.8223 323° Northwest  Level Estimated
11:23PM 35.6046 26.7410 323° Northwest  Level Estimated
11:24PM 35.6930 26.6594 323° Northwest  Level Estimated
11:25PM 35.7813 26.5777 323° Northwest  Level Estimated
11:26PM 35.8695 26.4958 323° Northwest  Level Estimated
11:27PM 35.9577 26.4137 323° Northwest  Level Estimated
11:28PM 36.0458 26.3315 323° Northwest  Level Estimated
11:29PM 36.1339 26.2490 323° Northwest  Level Estimated
11:30PM 36.2219 26.1664 323° Northwest  Level Estimated
11:31PM 36.3099 26.0835 323° Northwest  Level Estimated
11:32PM 36.3978 26.0005 323° Northwest  Level Estimated
11:33PM 36.4856 25.9173 323° Northwest  Level Estimated
11:34PM 36.5734 25.8340 323° Northwest  Level Estimated
11:35PM 36.6611 25.7504 323° Northwest  Level Estimated
11:36PM 36.7488 25.6666 323° Northwest  Level Estimated
11:37PM 36.8364 25.5826 323° Northwest  Level Estimated
11:38PM 36.9240 25.4985 322° Northwest  Level Estimated
11:39PM 37.0115 25.4142 322° Northwest  Level Estimated
11:40PM 37.0989 25.3296 322° Northwest  Level Estimated
11:41PM 37.1863 25.2449 322° Northwest  Level Estimated
11:42PM 37.2736 25.1600 322° Northwest  Level Estimated
11:43PM 37.3608 25.0748 322° Northwest  Level Estimated
11:44PM 37.4480 24.9895 322° Northwest  Level Estimated
11:45PM 37.5351 24.9040 322° Northwest  Level Estimated
11:46PM 37.6222 24.8183 322° Northwest  Level Estimated
11:47PM 37.7092 24.7323 322° Northwest  Level Estimated
11:48PM 37.7962 24.6462 322° Northwest  Level Estimated
11:49PM 37.8830 24.5599 322° Northwest  Level Estimated
11:50PM 37.9699 24.4733 322° Northwest  Level Estimated
11:51PM 38.0566 24.3866 322° Northwest  Level Estimated
11:52PM 38.1433 24.2997 322° Northwest  Level Estimated
11:53PM 38.2299 24.2125 322° Northwest  Level Estimated
11:54PM 38.3165 24.1252 322° Northwest  Level Estimated
11:55PM 38.4030 24.0376 322° Northwest  Level Estimated
11:56PM 38.4894 23.9498 322° Northwest  Level Estimated
11:57PM 38.5758 23.8618 321° Northwest  Level Estimated
11:58PM 38.6621 23.7736 321° Northwest  Level Estimated
11:59PM 38.7483 23.6852 321° Northwest  Level Estimated
12:00AM 38.8345 23.5966 321° Northwest  Level Estimated
12:01AM 38.9206 23.5077 321° Northwest  Level Estimated
12:02AM 39.0066 23.4187 321° Northwest  Level Estimated
12:03AM 39.0926 23.3294 321° Northwest  Level Estimated
12:04AM 39.1785 23.2399 321° Northwest  Level Estimated
12:04AM 38.3420 22.5070 321° Northwest 424 488 34,000  Level FlightAware
12:05AM 39.2643 23.1502 321° Northwest  Level Estimated
12:06AM 39.3501 23.0603 321° Northwest  Level Estimated
12:06AM 38.4960 22.3420 320° Northwest 426 490 34,000  Level FlightAware
12:08AM 38.6464 22.2023 324° Northwest  Level Estimated
12:09AM 38.7357 22.1191 324° Northwest  Level Estimated
12:10AM 38.8250 22.0356 324° Northwest  Level Estimated
12:11AM 38.9142 21.9519 324° Northwest  Level Estimated
12:12AM 39.0033 21.8680 324° Northwest  Level Estimated
12:13AM 39.0923 21.7840 324° Northwest  Level Estimated
12:14AM 39.1813 21.6996 324° Northwest  Level Estimated
12:15AM 39.2702 21.6151 324° Northwest  Level Estimated
12:16AM 39.3591 21.5304 324° Northwest  Level Estimated
12:17AM 39.4479 21.4454 324° Northwest  Level Estimated
12:18AM 39.5367 21.3603 324° Northwest  Level Estimated
12:19AM 39.6254 21.2749 323° Northwest  Level Estimated
12:20AM 39.7140 21.1893 323° Northwest  Level Estimated
12:21AM 39.8026 21.1034 323° Northwest  Level Estimated
12:22AM 39.8910 21.0174 323° Northwest  Level Estimated
12:23AM 39.9795 20.9311 323° Northwest  Level Estimated
12:24AM 40.0678 20.8446 323° Northwest  Level Estimated
12:25AM 40.1562 20.7579 323° Northwest  Level Estimated
12:26AM 40.2444 20.6710 323° Northwest  Level Estimated
12:27AM 40.3326 20.5838 323° Northwest  Level Estimated
12:28AM 40.4207 20.4964 323° Northwest  Level Estimated
12:29AM 40.5087 20.4088 323° Northwest  Level Estimated
12:30AM 40.5967 20.3209 323° Northwest  Level Estimated
12:31AM 40.6846 20.2328 323° Northwest  Level Estimated
12:32AM 40.7725 20.1445 323° Northwest  Level Estimated
12:33AM 40.8602 20.0559 323° Northwest  Level Estimated
12:34AM 40.9479 19.9671 323° Northwest  Level Estimated
12:34AM 41.1900 19.9890 323° Northwest 418 481 36,000  Level FlightAware
12:35AM 41.2710 19.9400 336° Northwest 418 481 36,000  Level FlightAware
12:35AM 41.3410 19.8980 336° Northwest 417 480 36,000  Level FlightAware
12:36AM 41.4190 19.8510 336° Northwest 417 480 36,000  Level FlightAware
12:37AM 41.4900 19.8080 336° Northwest 418 481 36,000  Level FlightAware
12:37AM 41.5560 19.7680 336° Northwest 421 484 36,000  Level FlightAware
12:38AM 41.6420 19.7150 335° Northwest 421 484 36,000  Level FlightAware
12:39AM 41.7130 19.6720 336° Northwest 422 486 36,000  Level FlightAware
12:39AM 41.7920 19.6240 336° Northwest 423 487 36,000  Level FlightAware
12:40AM 41.8610 19.5810 335° Northwest 423 487 36,000  Level FlightAware
12:41AM 41.9150 19.5480 336° Northwest 424 488 36,000  Level FlightAware
12:41AM 41.9870 19.5040 336° Northwest 425 489 36,000  Level FlightAware
12:42AM 42.0680 19.4530 335° Northwest 426 490 36,000  Level FlightAware
12:43AM 42.1410 19.4080 335° Northwest 426 490 36,000  Level FlightAware
12:43AM 42.2120 19.3590 333° Northwest 425 489 36,000  Level FlightAware
12:44AM 42.2870 19.3040 332° Northwest 425 489 36,000  Level FlightAware
12:45AM 42.3510 19.2550 331° Northwest 425 489 36,000  Level FlightAware
12:46AM 42.4330 19.1920 330° Northwest 426 490 36,000  Level FlightAware
12:46AM 42.5020 19.1380 330° Northwest 426 490 36,000  Level FlightAware
12:47AM 42.5700 19.0860 331° Northwest 427 491 36,000  Level FlightAware
12:48AM 42.6480 19.0260 331° Northwest 428 493 36,000  Level FlightAware
12:48AM 42.7150 18.9740 330° Northwest 428 493 36,000  Level FlightAware
12:49AM 42.7940 18.9120 330° Northwest 428 493 36,000  Level FlightAware
12:50AM 42.8620 18.8590 330° Northwest 427 491 36,000  Level FlightAware
12:50AM 42.9320 18.8050 331° Northwest 427 491 36,000  Level FlightAware
12:51AM 43.0070 18.7460 330° Northwest 428 493 36,000  Level FlightAware
12:52AM 43.0760 18.6910 330° Northwest 428 493 36,000  Level FlightAware
12:53AM 43.1550 18.6290 330° Northwest 429 494 36,000  Level FlightAware
12:53AM 43.2220 18.5770 331° Northwest 429 494 36,000  Level FlightAware
12:54AM 43.2920 18.5210 330° Northwest 431 496 36,000  Level FlightAware
12:55AM 43.3680 18.4610 330° Northwest 431 496 36,000  Level FlightAware
12:55AM 43.4370 18.4060 330° Northwest 431 496 36,000  Level FlightAware
12:56AM 43.5160 18.3420 330° Northwest 431 496 36,000  Level FlightAware
12:57AM 43.5850 18.2870 330° Northwest 430 495 36,000  Level FlightAware
12:57AM 43.6530 18.2330 330° Northwest 430 495 36,000  Level FlightAware
12:58AM 43.7300 18.1710 330° Northwest 430 495 36,000  Level FlightAware
12:59AM 43.7950 18.1180 330° Northwest 430 495 36,000  Level FlightAware
12:59AM 43.8660 18.0610 330° Northwest 428 493 36,000  Level FlightAware
01:00AM 43.9430 17.9980 330° Northwest 427 491 36,000  Level FlightAware
01:01AM 44.0110 17.9430 330° Northwest 428 493 36,000  Level FlightAware
01:02AM 44.0860 17.8810 329° Northwest 428 493 36,000 -120 Level FlightAware
01:02AM 44.1560 17.8240 330° Northwest 432 497 35,900  Descending FlightAware
01:03AM 44.2330 17.7600 329° Northwest 429 494 36,000 60 Climbing FlightAware
01:04AM 44.3040 17.7020 330° Northwest 433 498 36,000  Level FlightAware
01:04AM 44.3730 17.6450 329° Northwest 436 502 36,000  Level FlightAware
01:05AM 44.4530 17.5790 330° Northwest 446 513 36,000  Level FlightAware
01:06AM 44.5250 17.5190 329° Northwest 449 517 36,000  Level FlightAware
01:07AM 44.6050 17.4520 329° Northwest 450 518 36,000  Level FlightAware
01:07AM 44.6760 17.3930 329° Northwest 452 520 36,000  Level FlightAware
01:08AM 44.7480 17.3320 329° Northwest 452 520 36,000  Level FlightAware
01:09AM 44.8290 17.2640 329° Northwest 452 520 36,000  Level FlightAware
01:09AM 44.9000 17.2040 329° Northwest 451 519 36,000  Level FlightAware
01:10AM 44.9800 17.1370 329° Northwest 450 518 36,000  Level FlightAware
01:11AM 45.0510 17.0760 329° Northwest 448 516 36,000  Level FlightAware
01:11AM 45.1230 17.0150 329° Northwest 448 516 36,000  Level FlightAware
01:12AM 45.2030 16.9470 329° Northwest 449 517 36,000  Level FlightAware
01:13AM 45.2720 16.8870 329° Northwest 448 516 36,000  Level FlightAware
01:14AM 45.3530 16.8170 329° Northwest 449 517 36,000  Level FlightAware
01:14AM 45.4240 16.7570 329° Northwest 450 518 36,000  Level FlightAware
01:15AM 45.4950 16.6950 329° Northwest 451 519 36,000  Level FlightAware
01:16AM 45.5740 16.6260 329° Northwest 451 519 36,000  Level FlightAware
01:16AM 45.6460 16.5640 329° Northwest 451 519 36,000  Level FlightAware
01:17AM 45.7170 16.5020 329° Northwest 451 519 36,000  Level FlightAware
01:18AM 45.7980 16.4310 329° Northwest 452 520 36,000  Level FlightAware
01:18AM 45.8700 16.3680 329° Northwest 452 520 36,000  Level FlightAware
01:19AM 45.9490 16.2980 328° Northwest 453 521 36,000  Level FlightAware
01:20AM 46.0210 16.2340 328° Northwest 453 521 36,000  Level FlightAware
01:21AM 46.1020 16.1630 329° Northwest 454 522 36,000  Level FlightAware
01:21AM 46.1720 16.1000 328° Northwest 454 522 36,000  Level FlightAware
01:22AM 46.2390 16.0400 328° Northwest 455 524 36,000  Level FlightAware
01:23AM 46.3150 15.9720 328° Northwest 448 516 36,000  Level FlightAware
01:23AM 46.3940 15.9080 331° Northwest 448 516 36,000  Level FlightAware
01:24AM 46.4950 15.8270 331° Northwest 449 517 36,000  Level FlightAware
01:25AM 46.5750 15.7620 331° Northwest 447 514 36,000  Level FlightAware
01:26AM 46.6490 15.7010 331° Northwest 447 514 36,000  Level FlightAware
01:26AM 46.7260 15.6390 331° Northwest 447 514 36,000  Level FlightAware
01:27AM 46.8110 15.5690 331° Northwest 448 516 36,000  Level FlightAware
01:28AM 46.9330 15.4650 330° Northwest 446 513 36,000  Level FlightAware
01:29AM 46.9960 15.3940 322° Northwest 449 517 36,000  Level FlightAware
01:30AM 47.0700 15.2930 317° Northwest 443 510 36,000  Level FlightAware
01:31AM 47.1790 15.1420 317° Northwest 445 512 36,000  Level FlightAware
01:32AM 47.2560 15.0350 317° Northwest 446 513 36,000  Level FlightAware
01:32AM 47.3280 14.9340 316° Northwest 448 516 36,000  Level FlightAware
01:33AM 47.4010 14.8330 317° Northwest 449 517 36,000  Level FlightAware
01:34AM 47.4750 14.7280 316° Northwest 454 522 36,000  Level FlightAware
01:35AM 47.5350 14.6440 317° Northwest 454 522 36,000  Level FlightAware
01:35AM 47.6000 14.5520 316° Northwest 453 521 36,000  Level FlightAware
01:36AM 47.6680 14.4550 316° Northwest 452 520 36,000  Level FlightAware
01:37AM 47.7320 14.3630 316° Northwest 451 519 36,000  Level FlightAware
01:38AM 47.7910 14.2790 316° Northwest 451 519 36,000  Level FlightAware
01:38AM 47.8600 14.1800 316° Northwest 451 519 36,000  Level FlightAware
01:39AM 47.9190 14.0950 316° Northwest 452 520 36,000  Level FlightAware
01:40AM 47.9850 14.0000 316° Northwest 452 520 36,000  Level FlightAware
01:40AM 48.0450 13.9130 316° Northwest 451 519 36,000  Level FlightAware
01:41AM 48.1040 13.8260 315° West 451 519 36,000  Level FlightAware
01:42AM 48.1690 13.7310 316° Northwest 450 518 36,000  Level FlightAware
01:42AM 48.2310 13.6400 316° Northwest 449 517 36,000  Level FlightAware
01:43AM 48.2980 13.5420 316° Northwest 449 517 36,000  Level FlightAware
01:44AM 48.3480 13.4510 310° West 442 509 36,000  Level FlightAware
01:45AM 48.3900 13.3210 296° West 439 505 36,000  Level FlightAware
01:45AM 48.4230 13.2130 295° West 440 506 36,000  Level FlightAware
01:46AM 48.4530 13.1160 295° West 440 506 36,000  Level FlightAware
01:47AM 48.4960 12.9760 295° West 441 507 36,000  Level FlightAware
01:47AM 48.5300 12.8640 295° West 441 507 36,000  Level FlightAware
01:48AM 48.5620 12.7570 294° West 442 509 36,000  Level FlightAware
01:49AM 48.6030 12.6220 295° West 442 509 36,000 -240 Level FlightAware
01:49AM 48.6340 12.5160 294° West 440 506 35,700 -720 Descending FlightAware
01:50AM 48.6730 12.3870 295° West 436 502 35,000 -960 Descending FlightAware
01:51AM 48.7060 12.2750 294° West 429 494 34,400 -900 Descending FlightAware
01:52AM 48.7370 12.1650 293° West 433 498 33,800 -960 Descending FlightAware
01:52AM 48.7560 12.0640 286° West 435 501 33,200 -1,080 Descending FlightAware
01:53AM 48.7800 11.9180 284° West 440 506 32,300 -840 Descending FlightAware
01:54AM 48.8180 11.8110 298° West 435 501 32,000 -240 Descending FlightAware
01:54AM 48.8620 11.6860 298° West 436 502 32,000  Level FlightAware
01:55AM 48.8980 11.5840 298° West 435 501 32,000 -240 Level FlightAware
01:56AM 48.9410 11.4620 298° West 428 493 31,700 -1,140 Descending FlightAware
01:56AM 48.9770 11.3600 298° West 418 481 30,400 -1,980 Descending FlightAware
01:57AM 49.0130 11.2580 298° West 409 471 29,100 -1,980 Descending FlightAware
01:58AM 49.0520 11.1460 298° West 396 456 27,600 -1,980 Descending FlightAware
01:59AM 49.0860 11.0480 298° West 389 448 26,300 -1,860 Descending FlightAware
01:59AM 49.1230 10.9390 297° West 378 435 25,000 -1,320 Descending FlightAware
02:00AM 49.1530 10.8520 298° West 367 422 24,500 -780 Descending FlightAware
02:01AM 49.1890 10.7470 298° West 374 430 24,000 -360 Descending FlightAware
02:01AM 49.2360 10.6680 312° West 379 436 24,000  Level FlightAware
02:02AM 49.2770 10.6080 316° Northwest 379 436 24,000 -900 Level FlightAware
02:03AM 49.3490 10.5140 320° Northwest 382 440 22,800 -1,260 Descending FlightAware
02:04AM 49.4330 10.4340 328° Northwest 381 438 21,800 -1,020 Descending FlightAware
02:04AM 49.5000 10.3700 328° Northwest 376 433 21,100 -720 Descending FlightAware
02:05AM 49.5500 10.3220 328° Northwest 375 432 20,900 -1,080 Descending FlightAware
02:06AM 49.6160 10.2590 328° Northwest 369 425 19,700 -1,320 Descending FlightAware
02:06AM 49.6700 10.1980 324° Northwest 353 406 19,100 -1,020 Descending FlightAware
02:07AM 49.6810 10.1670 299° West 342 394 18,800 -1,440 Descending FlightAware
02:07AM 49.7040 10.0660 289° West 335 386 17,800 -1,740 Descending FlightAware
02:08AM 49.7250 9.9750 290° West 333 383 16,400 -2,100 Descending FlightAware
02:09AM 49.7490 9.8630 288° West 327 376 14,700 -2,220 Descending FlightAware
02:10AM 49.7690 9.7750 289° West 322 371 13,300 -2,100 Descending FlightAware
02:10AM 49.7880 9.6910 289° West 317 365 11,900 -1,680 Descending FlightAware
02:11AM 49.8080 9.5980 288° West 297 342 11,000 -660 Descending FlightAware
02:12AM 49.8240 9.5250 289° West 263 303 11,000  Level FlightAware
02:12AM 49.8400 9.4520 289° West 264 304 11,000  Level FlightAware
02:13AM 49.8580 9.3690 289° West 265 305 11,000  Level FlightAware
02:14AM 49.8700 9.2960 284° West 265 305 11,000 -120 Level FlightAware
02:14AM 49.8820 9.2170 283° West 264 304 10,900 -360 Descending FlightAware
02:15AM 49.8880 9.1960 294° West 269 310 10,700 -1,200 Descending FlightAware
02:15AM 49.9030 9.1760 319° Northwest 277 319 10,400 -960 Descending FlightAware
02:16AM 49.9840 9.1830 North 263 303 9,400 -900 Descending FlightAware
02:17AM 50.0220 9.1920 North 262 302 8,900 -960 Descending FlightAware
02:17AM 50.0430 9.1960 North 260 299 8,600 -1,080 Descending FlightAware
02:17AM 50.0610 9.1960 360° North 246 283 8,300 -1,080 Descending FlightAware
02:17AM 50.0860 9.1940 357° North 255 293 8,000 -1,080 Descending FlightAware
02:18AM 50.1260 9.1900 356° North 260 299 7,400 -1,080 Descending FlightAware
02:18AM 50.1450 9.1870 354° North 253 291 7,200 -840 Descending FlightAware
02:18AM 50.1610 9.1760 336° Northwest 228 262 7,000 -600 Descending FlightAware
02:19AM 50.1670 9.1580 297° West 202 232 6,900 -240 Descending FlightAware
02:19AM 50.1670 9.1450 270° West 187 215 6,900 -240 Level FlightAware
02:19AM 50.1650 9.1250 261° West 172 198 6,800 -540 Descending FlightAware
02:20AM 50.1590 9.0900 255° West 164 189 6,500 -600 Descending FlightAware
02:20AM 50.1520 9.0630 248° West 165 190 6,300 -600 Descending FlightAware
02:21AM 50.1450 9.0300 252° West 164 189 6,000 -600 Descending FlightAware
02:21AM 50.1380 9.0000 250° West 162 186 5,800 -600 Descending FlightAware
02:21AM 50.1300 8.9680 249° West 162 186 5,500 -720 Descending FlightAware
02:22AM 50.1230 8.9350 252° West 158 182 5,100 -900 Descending FlightAware
02:22AM 50.1170 8.9100 249° West 157 181 4,700 -900 Descending FlightAware
02:23AM 50.1090 8.8780 249° West 158 182 4,300 -900 Descending FlightAware
02:23AM 50.1030 8.8500 252° West 159 183 3,900 -900 Descending FlightAware
02:24AM 50.0990 8.8360 246° West 157 181 3,700 -840 Descending FlightAware
02:24AM 50.0910 8.8030 249° West 159 183 3,300 -900 Descending FlightAware
02:25AM 50.0840 8.7720 251° West 159 183 2,800 -900 Descending FlightAware
02:25AM 50.0770 8.7440 249° West 160 184 2,500 -780 Descending FlightAware
02:25AM 50.0700 8.7120 251° West 153 176 2,100 -900 Descending FlightAware
02:26AM 50.0640 8.6880 249° West 143 165 1,700 -780 Descending FlightAware
02:26AM 50.0580 8.6600 252° West 139 160 1,400 -720 Descending FlightAware
02:27AM 50.0510 8.6310 249° West 137 158 1,000 -780 Descending FlightAware
02:27AM 50.0450 8.6070 249° West 137 158 700 -720 Descending FlightAware
02:28AM 50.0400 8.5850 251° West 143 165 400 -720 Descending FlightAware